sensor_id;sensor_type;location;lat;lon;timestamp;pressure;altitude;pressure_sealevel;temperature;humidity
58843;BME280;44614;54.356;10.100;2023-02-17T00:01:26;101223.97;;;6.10;100.00
58843;BME280;44614;54.356;10.100;2023-02-17T00:03:52;101218.53;;;6.10;100.00
58843;BME280;44614;54.356;10.100;2023-02-17T00:06:20;101218.13;;;6.14;100.00
58843;BME280;44614;54.356;10.100;2023-02-17T00:08:46;101202.44;;;6.16;100.00
58843;BME280;44614;54.356;10.100;2023-02-17T00:11:12;101195.13;;;6.16;100.00
58843;BME280;44614;54.356;10.100;2023-02-17T00:13:38;101193.69;;;6.05;100.00
58843;BME280;44614;54.356;10.100;2023-02-17T00:16:30;101189.47;;;6.18;100.00
58843;BME280;44614;54.356;10.100;2023-02-17T00:18:58;101185.88;;;6.17;100.00
58843;BME280;44614;54.356;10.100;2023-02-17T00:21:26;101176.50;;;6.20;100.00
58843;BME280;44614;54.356;10.100;2023-02-17T00:23:52;101187.22;;;6.21;100.00
58843;BME280;44614;54.356;10.100;2023-02-17T00:26:18;101174.63;;;6.20;100.00
58843;BME280;44614;54.356;10.100;2023-02-17T00:28:45;101170.69;;;6.23;100.00
58843;BME280;44614;54.356;10.100;2023-02-17T00:31:16;101151.28;;;6.18;100.00
58843;BME280;44614;54.356;10.100;2023-02-17T00:33:42;101161.25;;;6.25;100.00
58843;BME280;44614;54.356;10.100;2023-02-17T00:36:11;101158.53;;;6.25;100.00
58843;BME280;44614;54.356;10.100;2023-02-17T00:38:37;101136.81;;;6.17;100.00
58843;BME280;44614;54.356;10.100;2023-02-17T00:41:04;101139.63;;;6.24;100.00
58843;BME280;44614;54.356;10.100;2023-02-17T00:43:29;101145.94;;;6.24;100.00
58843;BME280;44614;54.356;10.100;2023-02-17T00:45:55;101144.72;;;6.27;100.00
58843;BME280;44614;54.356;10.100;2023-02-17T00:48:20;101148.56;;;6.32;100.00
58843;BME280;44614;54.356;10.100;2023-02-17T00:50:47;101142.09;;;6.33;100.00
58843;BME280;44614;54.356;10.100;2023-02-17T00:53:12;101134.09;;;6.32;100.00
58843;BME280;44614;54.356;10.100;2023-02-17T00:55:38;101128.25;;;6.35;100.00
58843;BME280;44614;54.356;10.100;2023-02-17T00:58:03;101120.91;;;6.35;100.00
58843;BME280;44614;54.356;10.100;2023-02-17T01:00:28;101101.47;;;6.24;100.00
58843;BME280;44614;54.356;10.100;2023-02-17T01:02:54;101125.81;;;6.40;100.00
58843;BME280;44614;54.356;10.100;2023-02-17T01:05:19;101123.00;;;6.33;100.00
58843;BME280;44614;54.356;10.100;2023-02-17T01:07:44;101126.47;;;6.42;100.00
58843;BME280;44614;54.356;10.100;2023-02-17T01:10:10;101109.81;;;6.37;100.00
58843;BME280;44614;54.356;10.100;2023-02-17T01:12:35;101115.34;;;6.44;100.00
58843;BME280;44614;54.356;10.100;2023-02-17T01:15:01;101117.91;;;6.45;100.00
58843;BME280;44614;54.356;10.100;2023-02-17T01:17:27;101110.09;;;6.42;100.00
58843;BME280;44614;54.356;10.100;2023-02-17T01:19:52;101114.13;;;6.46;100.00
58843;BME280;44614;54.356;10.100;2023-02-17T01:22:18;101113.31;;;6.46;100.00
58843;BME280;44614;54.356;10.100;2023-02-17T01:24:43;101103.22;;;6.46;100.00
58843;BME280;44614;54.356;10.100;2023-02-17T01:27:08;101094.22;;;6.46;100.00
58843;BME280;44614;54.356;10.100;2023-02-17T01:29:33;101086.84;;;6.46;100.00
58843;BME280;44614;54.356;10.100;2023-02-17T01:31:59;101080.34;;;6.47;100.00
58843;BME280;44614;54.356;10.100;2023-02-17T01:34:24;101082.72;;;6.50;100.00
58843;BME280;44614;54.356;10.100;2023-02-17T01:36:49;101088.81;;;6.52;100.00
58843;BME280;44614;54.356;10.100;2023-02-17T01:39:15;101067.66;;;6.54;100.00
58843;BME280;44614;54.356;10.100;2023-02-17T01:41:42;101055.69;;;6.55;100.00
58843;BME280;44614;54.356;10.100;2023-02-17T01:44:19;101035.66;;;6.48;100.00
58843;BME280;44614;54.356;10.100;2023-02-17T01:46:51;101034.91;;;6.54;100.00
58843;BME280;44614;54.356;10.100;2023-02-17T01:51:49;101040.16;;;6.56;100.00
58843;BME280;44614;54.356;10.100;2023-02-17T01:54:24;101026.47;;;6.49;100.00
58843;BME280;44614;54.356;10.100;2023-02-17T01:56:51;101017.22;;;6.50;100.00
58843;BME280;44614;54.356;10.100;2023-02-17T01:59:20;101034.16;;;6.61;100.00
58843;BME280;44614;54.356;10.100;2023-02-17T02:01:49;101025.97;;;6.61;100.00
58843;BME280;44614;54.356;10.100;2023-02-17T02:04:19;101034.63;;;6.64;100.00
58843;BME280;44614;54.356;10.100;2023-02-17T02:06:46;101020.97;;;6.64;100.00
58843;BME280;44614;54.356;10.100;2023-02-17T02:09:21;101009.38;;;6.62;100.00
58843;BME280;44614;54.356;10.100;2023-02-17T02:11:49;101021.59;;;6.66;100.00
58843;BME280;44614;54.356;10.100;2023-02-17T02:14:16;101005.22;;;6.66;100.00
58843;BME280;44614;54.356;10.100;2023-02-17T02:16:45;101005.03;;;6.68;100.00
58843;BME280;44614;54.356;10.100;2023-02-17T02:19:42;100995.53;;;6.64;100.00
58843;BME280;44614;54.356;10.100;2023-02-17T02:22:22;100997.50;;;6.70;100.00
58843;BME280;44614;54.356;10.100;2023-02-17T02:30:29;100972.34;;;6.74;100.00
58843;BME280;44614;54.356;10.100;2023-02-17T02:33:10;100941.25;;;6.69;100.00
58843;BME280;44614;54.356;10.100;2023-02-17T02:38:30;100960.00;;;6.78;100.00
58843;BME280;44614;54.356;10.100;2023-02-17T02:41:14;100949.03;;;6.72;100.00
58843;BME280;44614;54.356;10.100;2023-02-17T02:43:41;100953.09;;;6.82;100.00
58843;BME280;44614;54.356;10.100;2023-02-17T02:46:07;100941.34;;;6.82;100.00
58843;BME280;44614;54.356;10.100;2023-02-17T02:48:33;100916.69;;;6.69;100.00
58843;BME280;44614;54.356;10.100;2023-02-17T02:51:09;100951.25;;;6.83;100.00
58843;BME280;44614;54.356;10.100;2023-02-17T03:04:33;100938.09;;;6.93;100.00
58843;BME280;44614;54.356;10.100;2023-02-17T03:07:15;100939.97;;;6.93;100.00
58843;BME280;44614;54.356;10.100;2023-02-17T03:09:50;100945.06;;;6.96;100.00
58843;BME280;44614;54.356;10.100;2023-02-17T03:12:17;100941.09;;;6.98;100.00
58843;BME280;44614;54.356;10.100;2023-02-17T03:14:43;100936.66;;;6.97;100.00
58843;BME280;44614;54.356;10.100;2023-02-17T03:17:08;100941.72;;;7.00;100.00
58843;BME280;44614;54.356;10.100;2023-02-17T03:19:34;100939.78;;;6.94;100.00
58843;BME280;44614;54.356;10.100;2023-02-17T03:22:13;100924.88;;;6.97;100.00
58843;BME280;44614;54.356;10.100;2023-02-17T03:24:40;100930.81;;;7.00;100.00
58843;BME280;44614;54.356;10.100;2023-02-17T03:27:06;100943.47;;;7.08;100.00
58843;BME280;44614;54.356;10.100;2023-02-17T03:29:31;100917.81;;;7.02;100.00
58843;BME280;44614;54.356;10.100;2023-02-17T03:31:57;100910.69;;;7.08;100.00
58843;BME280;44614;54.356;10.100;2023-02-17T03:34:22;100908.19;;;7.06;100.00
58843;BME280;44614;54.356;10.100;2023-02-17T03:36:47;100898.53;;;7.11;100.00
58843;BME280;44614;54.356;10.100;2023-02-17T03:39:13;100888.47;;;7.11;100.00
58843;BME280;44614;54.356;10.100;2023-02-17T03:41:38;100900.88;;;7.14;100.00
58843;BME280;44614;54.356;10.100;2023-02-17T03:44:03;100906.97;;;7.16;100.00
58843;BME280;44614;54.356;10.100;2023-02-17T03:46:29;100907.19;;;7.14;100.00
58843;BME280;44614;54.356;10.100;2023-02-17T03:48:54;100893.63;;;6.99;100.00
58843;BME280;44614;54.356;10.100;2023-02-17T03:51:21;100912.66;;;7.21;100.00
58843;BME280;44614;54.356;10.100;2023-02-17T03:53:48;100903.47;;;7.22;100.00
58843;BME280;44614;54.356;10.100;2023-02-17T03:56:14;100895.00;;;7.17;100.00
58843;BME280;44614;54.356;10.100;2023-02-17T03:58:40;100908.50;;;7.25;100.00
58843;BME280;44614;54.356;10.100;2023-02-17T04:01:07;100901.78;;;7.27;100.00
58843;BME280;44614;54.356;10.100;2023-02-17T04:03:33;100898.63;;;7.24;100.00
58843;BME280;44614;54.356;10.100;2023-02-17T04:05:59;100893.81;;;7.26;100.00
58843;BME280;44614;54.356;10.100;2023-02-17T04:08:24;100885.41;;;7.27;100.00
58843;BME280;44614;54.356;10.100;2023-02-17T04:10:54;100881.00;;;7.26;100.00
58843;BME280;44614;54.356;10.100;2023-02-17T04:13:21;100885.63;;;7.26;100.00
58843;BME280;44614;54.356;10.100;2023-02-17T04:15:47;100887.75;;;7.30;100.00
58843;BME280;44614;54.356;10.100;2023-02-17T04:18:12;100865.06;;;7.30;100.00
58843;BME280;44614;54.356;10.100;2023-02-17T04:20:38;100859.94;;;7.20;100.00
58843;BME280;44614;54.356;10.100;2023-02-17T04:23:03;100858.31;;;7.26;100.00
58843;BME280;44614;54.356;10.100;2023-02-17T04:25:28;100873.47;;;7.35;100.00
58843;BME280;44614;54.356;10.100;2023-02-17T04:27:54;100856.63;;;7.31;100.00
58843;BME280;44614;54.356;10.100;2023-02-17T04:30:19;100851.44;;;7.37;100.00
58843;BME280;44614;54.356;10.100;2023-02-17T04:32:44;100842.38;;;7.36;100.00
58843;BME280;44614;54.356;10.100;2023-02-17T04:35:10;100845.53;;;7.40;100.00
58843;BME280;44614;54.356;10.100;2023-02-17T04:37:35;100841.97;;;7.39;100.00
58843;BME280;44614;54.356;10.100;2023-02-17T04:40:00;100841.78;;;7.41;100.00
58843;BME280;44614;54.356;10.100;2023-02-17T04:42:26;100832.72;;;7.40;100.00
58843;BME280;44614;54.356;10.100;2023-02-17T04:44:51;100830.41;;;7.37;100.00
58843;BME280;44614;54.356;10.100;2023-02-17T04:47:16;100823.91;;;7.38;100.00
58843;BME280;44614;54.356;10.100;2023-02-17T04:49:41;100825.19;;;7.42;100.00
58843;BME280;44614;54.356;10.100;2023-02-17T04:52:07;100823.28;;;7.43;100.00
58843;BME280;44614;54.356;10.100;2023-02-17T04:54:32;100805.41;;;7.40;100.00
58843;BME280;44614;54.356;10.100;2023-02-17T04:56:57;100820.56;;;7.43;100.00
58843;BME280;44614;54.356;10.100;2023-02-17T04:59:23;100823.09;;;7.44;100.00
58843;BME280;44614;54.356;10.100;2023-02-17T05:01:48;100817.81;;;7.43;100.00
58843;BME280;44614;54.356;10.100;2023-02-17T05:04:13;100811.13;;;7.45;100.00
58843;BME280;44614;54.356;10.100;2023-02-17T05:06:39;100791.97;;;7.39;100.00
58843;BME280;44614;54.356;10.100;2023-02-17T05:09:04;100792.41;;;7.42;100.00
58843;BME280;44614;54.356;10.100;2023-02-17T05:11:29;100800.22;;;7.52;100.00
58843;BME280;44614;54.356;10.100;2023-02-17T05:13:55;100807.16;;;7.54;100.00
58843;BME280;44614;54.356;10.100;2023-02-17T05:16:21;100777.25;;;7.40;100.00
58843;BME280;44614;54.356;10.100;2023-02-17T05:18:46;100799.16;;;7.53;100.00
58843;BME280;44614;54.356;10.100;2023-02-17T05:21:11;100774.56;;;7.53;100.00
58843;BME280;44614;54.356;10.100;2023-02-17T05:23:37;100777.09;;;7.54;100.00
58843;BME280;44614;54.356;10.100;2023-02-17T05:26:06;100764.25;;;7.55;100.00
58843;BME280;44614;54.356;10.100;2023-02-17T05:28:33;100727.44;;;7.38;100.00
58843;BME280;44614;54.356;10.100;2023-02-17T05:30:59;100735.06;;;7.49;100.00
58843;BME280;44614;54.356;10.100;2023-02-17T05:33:25;100734.41;;;7.47;100.00
58843;BME280;44614;54.356;10.100;2023-02-17T05:35:50;100715.50;;;7.45;100.00
58843;BME280;44614;54.356;10.100;2023-02-17T05:38:16;100733.38;;;7.54;100.00
58843;BME280;44614;54.356;10.100;2023-02-17T05:40:41;100728.16;;;7.60;100.00
58843;BME280;44614;54.356;10.100;2023-02-17T05:43:06;100718.44;;;7.50;100.00
58843;BME280;44614;54.356;10.100;2023-02-17T05:45:32;100720.53;;;7.55;100.00
58843;BME280;44614;54.356;10.100;2023-02-17T05:47:57;100729.00;;;7.60;100.00
58843;BME280;44614;54.356;10.100;2023-02-17T05:50:22;100721.81;;;7.59;100.00
58843;BME280;44614;54.356;10.100;2023-02-17T05:52:48;100717.22;;;7.60;100.00
58843;BME280;44614;54.356;10.100;2023-02-17T05:55:13;100696.97;;;7.47;100.00
58843;BME280;44614;54.356;10.100;2023-02-17T05:57:38;100698.75;;;7.07;100.00
58843;BME280;44614;54.356;10.100;2023-02-17T06:00:04;100698.69;;;7.55;100.00
58843;BME280;44614;54.356;10.100;2023-02-17T06:02:30;100694.69;;;7.57;100.00
58843;BME280;44614;54.356;10.100;2023-02-17T06:04:55;100686.72;;;7.56;100.00
58843;BME280;44614;54.356;10.100;2023-02-17T06:07:20;100678.09;;;7.52;100.00
58843;BME280;44614;54.356;10.100;2023-02-17T06:09:46;100693.88;;;7.64;100.00
58843;BME280;44614;54.356;10.100;2023-02-17T06:12:11;100680.63;;;7.61;100.00
58843;BME280;44614;54.356;10.100;2023-02-17T06:14:37;100672.84;;;7.57;100.00
58843;BME280;44614;54.356;10.100;2023-02-17T06:17:02;100680.81;;;7.59;100.00
58843;BME280;44614;54.356;10.100;2023-02-17T06:19:28;100685.25;;;7.60;100.00
58843;BME280;44614;54.356;10.100;2023-02-17T06:21:53;100639.59;;;7.47;100.00
58843;BME280;44614;54.356;10.100;2023-02-17T06:24:21;100656.03;;;7.61;100.00
58843;BME280;44614;54.356;10.100;2023-02-17T06:26:46;100659.19;;;7.64;100.00
58843;BME280;44614;54.356;10.100;2023-02-17T06:29:11;100653.31;;;7.61;100.00
58843;BME280;44614;54.356;10.100;2023-02-17T06:31:37;100646.56;;;7.56;100.00
58843;BME280;44614;54.356;10.100;2023-02-17T06:34:02;100647.41;;;7.57;100.00
58843;BME280;44614;54.356;10.100;2023-02-17T06:36:27;100659.81;;;7.66;100.00
58843;BME280;44614;54.356;10.100;2023-02-17T06:38:53;100644.88;;;7.62;100.00
58843;BME280;44614;54.356;10.100;2023-02-17T06:41:18;100655.84;;;7.69;100.00
58843;BME280;44614;54.356;10.100;2023-02-17T06:43:43;100640.25;;;7.63;100.00
58843;BME280;44614;54.356;10.100;2023-02-17T06:46:09;100640.06;;;7.64;100.00
58843;BME280;44614;54.356;10.100;2023-02-17T06:48:34;100632.69;;;7.65;100.00
58843;BME280;44614;54.356;10.100;2023-02-17T06:51:00;100628.91;;;7.66;100.00
58843;BME280;44614;54.356;10.100;2023-02-17T06:53:25;100636.91;;;7.67;100.00
58843;BME280;44614;54.356;10.100;2023-02-17T06:55:50;100641.75;;;7.72;100.00
58843;BME280;44614;54.356;10.100;2023-02-17T06:58:15;100629.56;;;7.68;100.00
58843;BME280;44614;54.356;10.100;2023-02-17T07:00:41;100614.63;;;7.64;100.00
58843;BME280;44614;54.356;10.100;2023-02-17T07:03:06;100624.28;;;7.73;100.00
58843;BME280;44614;54.356;10.100;2023-02-17T07:05:35;100616.31;;;7.71;100.00
58843;BME280;44614;54.356;10.100;2023-02-17T07:08:02;100603.69;;;7.64;100.00
58843;BME280;44614;54.356;10.100;2023-02-17T07:10:28;100607.88;;;7.73;100.00
58843;BME280;44614;54.356;10.100;2023-02-17T07:12:53;100599.06;;;7.71;100.00
58843;BME280;44614;54.356;10.100;2023-02-17T07:15:18;100600.75;;;7.72;100.00
58843;BME280;44614;54.356;10.100;2023-02-17T07:17:49;100599.69;;;7.73;100.00
58843;BME280;44614;54.356;10.100;2023-02-17T07:20:14;100600.34;;;7.75;100.00
58843;BME280;44614;54.356;10.100;2023-02-17T07:22:40;100597.38;;;7.76;100.00
58843;BME280;44614;54.356;10.100;2023-02-17T07:25:06;100592.75;;;7.77;100.00
58843;BME280;44614;54.356;10.100;2023-02-17T07:27:34;100594.41;;;7.78;100.00
58843;BME280;44614;54.356;10.100;2023-02-17T07:29:59;100582.66;;;7.77;100.00
58843;BME280;44614;54.356;10.100;2023-02-17T07:32:25;100580.75;;;7.78;100.00
58843;BME280;44614;54.356;10.100;2023-02-17T07:34:50;100574.69;;;7.76;100.00
58843;BME280;44614;54.356;10.100;2023-02-17T07:37:16;100575.09;;;7.79;100.00
58843;BME280;44614;54.356;10.100;2023-02-17T07:39:41;100570.88;;;7.77;100.00
58843;BME280;44614;54.356;10.100;2023-02-17T07:42:06;100574.88;;;7.81;100.00
58843;BME280;44614;54.356;10.100;2023-02-17T07:44:32;100554.06;;;7.80;100.00
58843;BME280;44614;54.356;10.100;2023-02-17T07:46:57;100533.47;;;7.71;100.00
58843;BME280;44614;54.356;10.100;2023-02-17T07:49:23;100530.94;;;7.76;100.00
58843;BME280;44614;54.356;10.100;2023-02-17T07:51:48;100550.06;;;7.82;100.00
58843;BME280;44614;54.356;10.100;2023-02-17T07:54:13;100530.06;;;7.82;100.00
58843;BME280;44614;54.356;10.100;2023-02-17T07:56:39;100534.94;;;7.80;100.00
58843;BME280;44614;54.356;10.100;2023-02-17T07:59:08;100527.13;;;7.84;100.00
58843;BME280;44614;54.356;10.100;2023-02-17T08:01:34;100539.97;;;7.83;100.00
58843;BME280;44614;54.356;10.100;2023-02-17T08:03:59;100514.31;;;7.84;100.00
58843;BME280;44614;54.356;10.100;2023-02-17T08:06:25;100499.81;;;7.84;100.00
58843;BME280;44614;54.356;10.100;2023-02-17T08:08:51;100468.06;;;7.69;100.00
58843;BME280;44614;54.356;10.100;2023-02-17T08:11:36;100489.06;;;7.82;100.00
58843;BME280;44614;54.356;10.100;2023-02-17T08:14:21;100498.13;;;7.76;100.00
58843;BME280;44614;54.356;10.100;2023-02-17T08:16:47;100481.53;;;7.71;100.00
58843;BME280;44614;54.356;10.100;2023-02-17T08:19:12;100493.06;;;7.86;100.00
58843;BME280;44614;54.356;10.100;2023-02-17T08:21:37;100478.78;;;7.84;100.00
58843;BME280;44614;54.356;10.100;2023-02-17T08:24:03;100463.84;;;7.80;100.00
58843;BME280;44614;54.356;10.100;2023-02-17T08:26:29;100454.34;;;7.89;100.00
58843;BME280;44614;54.356;10.100;2023-02-17T08:28:54;100461.53;;;7.90;100.00
58843;BME280;44614;54.356;10.100;2023-02-17T08:31:24;100462.34;;;7.91;100.00
58843;BME280;44614;54.356;10.100;2023-02-17T08:33:50;100436.28;;;7.88;100.00
58843;BME280;44614;54.356;10.100;2023-02-17T08:36:16;100442.16;;;7.92;100.00
58843;BME280;44614;54.356;10.100;2023-02-17T08:38:41;100431.03;;;7.87;100.00
58843;BME280;44614;54.356;10.100;2023-02-17T08:41:13;100427.66;;;7.91;100.00
58843;BME280;44614;54.356;10.100;2023-02-17T08:43:39;100417.97;;;7.89;100.00
58843;BME280;44614;54.356;10.100;2023-02-17T08:46:08;100382.91;;;7.72;100.00
58843;BME280;44614;54.356;10.100;2023-02-17T08:48:34;100390.44;;;7.84;100.00
58843;BME280;44614;54.356;10.100;2023-02-17T08:50:59;100409.13;;;7.93;100.00
58843;BME280;44614;54.356;10.100;2023-02-17T08:53:25;100360.25;;;7.58;100.00
58843;BME280;44614;54.356;10.100;2023-02-17T08:55:50;100439.59;;;7.97;100.00
58843;BME280;44614;54.356;10.100;2023-02-17T08:58:15;100423.25;;;7.90;100.00
58843;BME280;44614;54.356;10.100;2023-02-17T09:00:41;100436.25;;;7.95;100.00
58843;BME280;44614;54.356;10.100;2023-02-17T09:03:06;100455.81;;;7.98;100.00
58843;BME280;44614;54.356;10.100;2023-02-17T09:05:32;100475.56;;;8.00;100.00
58843;BME280;44614;54.356;10.100;2023-02-17T09:07:59;100489.22;;;8.07;100.00
58843;BME280;44614;54.356;10.100;2023-02-17T09:10:25;100456.41;;;8.07;100.00
58843;BME280;44614;54.356;10.100;2023-02-17T09:12:50;100444.19;;;8.10;100.00
58843;BME280;44614;54.356;10.100;2023-02-17T09:15:16;100397.50;;;8.04;100.00
58843;BME280;44614;54.356;10.100;2023-02-17T09:17:41;100397.47;;;8.11;100.00
58843;BME280;44614;54.356;10.100;2023-02-17T09:20:07;100377.53;;;8.04;100.00
58843;BME280;44614;54.356;10.100;2023-02-17T09:22:33;100380.22;;;8.11;100.00
58843;BME280;44614;54.356;10.100;2023-02-17T09:24:58;100362.19;;;8.03;100.00
58843;BME280;44614;54.356;10.100;2023-02-17T09:27:23;100382.97;;;8.11;100.00
58843;BME280;44614;54.356;10.100;2023-02-17T09:29:48;100387.78;;;8.15;100.00
58843;BME280;44614;54.356;10.100;2023-02-17T09:32:14;100372.63;;;8.13;100.00
58843;BME280;44614;54.356;10.100;2023-02-17T09:34:39;100377.06;;;8.14;100.00
58843;BME280;44614;54.356;10.100;2023-02-17T09:37:11;100386.09;;;8.14;100.00
58843;BME280;44614;54.356;10.100;2023-02-17T09:39:37;100365.50;;;8.12;100.00
58843;BME280;44614;54.356;10.100;2023-02-17T09:42:02;100357.91;;;8.14;100.00
58843;BME280;44614;54.356;10.100;2023-02-17T09:47:03;100396.47;;;8.05;100.00
58843;BME280;44614;54.356;10.100;2023-02-17T09:49:45;100396.22;;;8.07;100.00
58843;BME280;44614;54.356;10.100;2023-02-17T09:54:53;100398.13;;;8.13;100.00
58843;BME280;44614;54.356;10.100;2023-02-17T09:57:26;100377.47;;;8.17;100.00
58843;BME280;44614;54.356;10.100;2023-02-17T10:00:09;100372.19;;;8.16;100.00
58843;BME280;44614;54.356;10.100;2023-02-17T10:02:51;100382.09;;;8.17;100.00
58843;BME280;44614;54.356;10.100;2023-02-17T10:05:22;100378.31;;;8.18;100.00
58843;BME280;44614;54.356;10.100;2023-02-17T10:07:56;100370.94;;;8.18;100.00
58843;BME280;44614;54.356;10.100;2023-02-17T10:10:30;100357.69;;;8.15;100.00
58843;BME280;44614;54.356;10.100;2023-02-17T10:13:01;100367.53;;;8.23;100.00
58843;BME280;44614;54.356;10.100;2023-02-17T10:15:30;100360.66;;;8.14;100.00
58843;BME280;44614;54.356;10.100;2023-02-17T10:18:27;100372.16;;;8.22;100.00
58843;BME280;44614;54.356;10.100;2023-02-17T10:20:59;100365.69;;;8.17;100.00
58843;BME280;44614;54.356;10.100;2023-02-17T10:23:28;100360.00;;;8.18;100.00
58843;BME280;44614;54.356;10.100;2023-02-17T10:29:23;100357.66;;;8.22;100.00
58843;BME280;44614;54.356;10.100;2023-02-17T10:37:18;100370.91;;;8.25;100.00
58843;BME280;44614;54.356;10.100;2023-02-17T10:39:50;100341.84;;;8.24;100.00
58843;BME280;44614;54.356;10.100;2023-02-17T10:45:01;100354.22;;;8.33;100.00
58843;BME280;44614;54.356;10.100;2023-02-17T10:47:27;100345.16;;;8.39;100.00
58843;BME280;44614;54.356;10.100;2023-02-17T10:49:55;100346.00;;;8.40;100.00
58843;BME280;44614;54.356;10.100;2023-02-17T10:52:35;100369.56;;;8.41;100.00
58843;BME280;44614;54.356;10.100;2023-02-17T10:55:35;100359.47;;;8.41;100.00
58843;BME280;44614;54.356;10.100;2023-02-17T10:58:17;100352.91;;;8.42;100.00
58843;BME280;44614;54.356;10.100;2023-02-17T11:00:52;100345.34;;;8.44;100.00
58843;BME280;44614;54.356;10.100;2023-02-17T11:03:24;100340.47;;;8.46;100.00
58843;BME280;44614;54.356;10.100;2023-02-17T11:06:01;100364.06;;;8.47;100.00
58843;BME280;44614;54.356;10.100;2023-02-17T11:08:44;100335.63;;;8.48;100.00
58843;BME280;44614;54.356;10.100;2023-02-17T11:11:20;100338.38;;;8.48;100.00
58843;BME280;44614;54.356;10.100;2023-02-17T11:14:00;100341.72;;;8.50;100.00
58843;BME280;44614;54.356;10.100;2023-02-17T11:17:17;100318.38;;;8.48;100.00
58843;BME280;44614;54.356;10.100;2023-02-17T11:19:32;100252.13;;;8.07;100.00
58843;BME280;44614;54.356;10.100;2023-02-17T11:22:00;100300.72;;;8.44;100.00
58843;BME280;44614;54.356;10.100;2023-02-17T11:24:28;100313.94;;;8.47;100.00
58843;BME280;44614;54.356;10.100;2023-02-17T11:27:07;100313.09;;;8.46;100.00
58843;BME280;44614;54.356;10.100;2023-02-17T11:29:33;100286.03;;;8.38;100.00
58843;BME280;44614;54.356;10.100;2023-02-17T11:32:07;100293.78;;;8.41;100.00
58843;BME280;44614;54.356;10.100;2023-02-17T11:34:37;100300.94;;;8.42;100.00
58843;BME280;44614;54.356;10.100;2023-02-17T11:39:44;100303.28;;;8.39;100.00
58843;BME280;44614;54.356;10.100;2023-02-17T11:42:14;100326.63;;;8.41;100.00
58843;BME280;44614;54.356;10.100;2023-02-17T11:44:39;100314.00;;;8.40;100.00
58843;BME280;44614;54.356;10.100;2023-02-17T11:55:15;100293.81;;;8.35;100.00
58843;BME280;44614;54.356;10.100;2023-02-17T12:00:36;100290.81;;;8.43;100.00
58843;BME280;44614;54.356;10.100;2023-02-17T12:06:05;100289.16;;;8.42;100.00
58843;BME280;44614;54.356;10.100;2023-02-17T12:11:13;100266.25;;;8.36;100.00
58843;BME280;44614;54.356;10.100;2023-02-17T12:26:54;100260.13;;;8.34;100.00
58843;BME280;44614;54.356;10.100;2023-02-17T12:32:29;100276.59;;;8.59;100.00
58843;BME280;44614;54.356;10.100;2023-02-17T12:35:02;100259.34;;;8.59;100.00
58843;BME280;44614;54.356;10.100;2023-02-17T12:37:37;100275.50;;;8.67;100.00
58843;BME280;44614;54.356;10.100;2023-02-17T12:42:54;100270.31;;;8.77;100.00
58843;BME280;44614;54.356;10.100;2023-02-17T12:45:24;100250.41;;;8.88;100.00
58843;BME280;44614;54.356;10.100;2023-02-17T12:51:15;100250.59;;;8.93;100.00
58843;BME280;44614;54.356;10.100;2023-02-17T12:57:35;100288.06;;;8.93;100.00
58843;BME280;44614;54.356;10.100;2023-02-17T12:59:38;100275.50;;;8.85;100.00
58843;BME280;44614;54.356;10.100;2023-02-17T13:02:17;100281.16;;;8.90;100.00
58843;BME280;44614;54.356;10.100;2023-02-17T13:04:45;100281.59;;;8.87;100.00
58843;BME280;44614;54.356;10.100;2023-02-17T13:09:41;100288.59;;;8.83;100.00
58843;BME280;44614;54.356;10.100;2023-02-17T13:12:29;100284.78;;;8.84;100.00
58843;BME280;44614;54.356;10.100;2023-02-17T13:15:02;100273.25;;;8.82;100.00
58843;BME280;44614;54.356;10.100;2023-02-17T13:17:36;100294.66;;;8.85;100.00
58843;BME280;44614;54.356;10.100;2023-02-17T13:22:37;100274.47;;;8.86;100.00
58843;BME280;44614;54.356;10.100;2023-02-17T13:25:03;100302.63;;;8.93;100.00
58843;BME280;44614;54.356;10.100;2023-02-17T13:27:32;100299.41;;;8.96;100.00
58843;BME280;44614;54.356;10.100;2023-02-17T13:32:30;100293.34;;;8.94;100.00
58843;BME280;44614;54.356;10.100;2023-02-17T13:40:25;100285.41;;;8.86;100.00
58843;BME280;44614;54.356;10.100;2023-02-17T13:42:55;100286.63;;;8.90;100.00
58843;BME280;44614;54.356;10.100;2023-02-17T13:48:09;100284.50;;;8.92;100.00
58843;BME280;44614;54.356;10.100;2023-02-17T13:50:41;100302.00;;;8.91;100.00
58843;BME280;44614;54.356;10.100;2023-02-17T13:53:34;100289.38;;;8.90;100.00
58843;BME280;44614;54.356;10.100;2023-02-17T13:56:05;100301.16;;;8.91;100.00
58843;BME280;44614;54.356;10.100;2023-02-17T13:58:32;100268.53;;;8.89;100.00
58843;BME280;44614;54.356;10.100;2023-02-17T14:00:59;100293.63;;;8.86;100.00
58843;BME280;44614;54.356;10.100;2023-02-17T14:03:33;100263.56;;;8.79;100.00
58843;BME280;44614;54.356;10.100;2023-02-17T14:06:00;100288.44;;;8.78;100.00
58843;BME280;44614;54.356;10.100;2023-02-17T14:08:37;100293.06;;;8.77;100.00
58843;BME280;44614;54.356;10.100;2023-02-17T14:11:32;100286.31;;;8.80;100.00
58843;BME280;44614;54.356;10.100;2023-02-17T14:13:58;100296.03;;;8.76;100.00
58843;BME280;44614;54.356;10.100;2023-02-17T14:16:30;100300.63;;;8.82;100.00
58843;BME280;44614;54.356;10.100;2023-02-17T14:21:29;100306.09;;;8.82;100.00
58843;BME280;44614;54.356;10.100;2023-02-17T14:23:56;100316.66;;;8.78;100.00
58843;BME280;44614;54.356;10.100;2023-02-17T14:26:36;100250.91;;;8.60;100.00
58843;BME280;44614;54.356;10.100;2023-02-17T14:29:04;100313.69;;;8.80;100.00